Time;durP1;ratioP1;P1;durP2;ratioP2;P2;SDS_P1;SDS_P2;PMS_P1;PMS_P2;Temp;Humidity;BMP_temperature;BMP_pressure;BME280_temperature;BME280_humidity;BME280_pressure;Samples;Min_cycle;Max_cycle;Signal;HPM_P1;HPM_P2
2023/05/05 00:01:05;;;;;;;;;;;12.50;88.90;;;;;;5020123;28;19917;-69
2023/05/05 00:03:31;;;;;;;;;;;12.50;88.80;;;;;;5003291;28;20590;-69
2023/05/05 00:05:57;;;;;;;;;;;12.50;88.60;;;;;;5002275;28;19918;-69
2023/05/05 00:08:23;;;;;;;;;;;12.50;88.60;;;;;;5009713;28;19923;-70
2023/05/05 00:10:49;;;;;;;;;;;12.50;88.80;;;;;;5002846;28;20004;-70
2023/05/05 00:13:15;;;;;;;;;;;12.40;88.70;;;;;;4997222;28;19998;-70
2023/05/05 00:15:41;;;;;;;;;;;12.40;89.10;;;;;;5005028;28;20401;-69
2023/05/05 00:18:07;;;;;;;;;;;12.40;89.30;;;;;;5002504;28;19921;-69
2023/05/05 00:20:33;;;;;;;;;;;12.40;89.10;;;;;;4997278;28;19970;-70
2023/05/05 00:22:59;;;;;;;;;;;12.40;89.30;;;;;;5002246;28;19948;-69
2023/05/05 00:25:24;;;;;;;;;;;12.40;89.30;;;;;;4993376;28;20099;-69
2023/05/05 00:27:50;;;;;;;;;;;12.40;89.60;;;;;;4993856;28;19965;-69
2023/05/05 00:30:15;;;;;;;;;;;12.30;89.70;;;;;;4998998;28;19917;-69
2023/05/05 00:32:41;;;;;;;;;;;12.40;89.80;;;;;;5009186;28;19952;-70
2023/05/05 00:35:07;;;;;;;;;;;12.30;89.80;;;;;;4980087;28;19917;-69
2023/05/05 00:37:33;;;;;;;;;;;12.30;90.00;;;;;;5011916;28;19972;-69
2023/05/05 00:39:59;;;;;;;;;;;12.30;90.10;;;;;;4996959;28;19925;-69
2023/05/05 00:42:25;;;;;;;;;;;12.20;90.10;;;;;;5008569;28;19917;-69
2023/05/05 00:44:51;;;;;;;;;;;12.20;90.00;;;;;;5004002;28;20250;-69
2023/05/05 00:47:18;;;;;;;;;;;12.20;90.10;;;;;;5020683;28;19932;-69
2023/05/05 00:49:43;;;;;;;;;;;12.10;90.10;;;;;;4997101;28;19940;-69
2023/05/05 00:52:09;;;;;;;;;;;12.10;90.00;;;;;;5003631;28;20207;-69
2023/05/05 00:54:35;;;;;;;;;;;12.00;89.90;;;;;;4996932;28;19921;-69
2023/05/05 00:57:01;;;;;;;;;;;12.00;89.70;;;;;;5004865;28;19992;-70
2023/05/05 00:59:30;;;;;;;;;;;12.00;89.60;;;;;;4983263;28;19932;-69
2023/05/05 01:01:55;;;;;;;;;;;12.00;89.50;;;;;;5009803;28;19914;-69
2023/05/05 01:04:21;;;;;;;;;;;11.90;89.70;;;;;;5008730;28;19990;-69
2023/05/05 01:07:06;;;;;;;;;;;11.90;89.50;;;;;;5022809;28;20261;-69
2023/05/05 01:09:32;;;;;;;;;;;11.90;89.30;;;;;;5002055;28;20011;-69
2023/05/05 01:12:00;;;;;;;;;;;11.90;89.50;;;;;;5021893;28;20349;-69
2023/05/05 01:14:39;;;;;;;;;;;11.90;89.80;;;;;;5002903;28;20012;-69
2023/05/05 01:17:25;;;;;;;;;;;11.80;89.70;;;;;;4988308;28;19917;-69
2023/05/05 01:20:09;;;;;;;;;;;11.80;89.50;;;;;;5012064;28;20072;-69
2023/05/05 01:22:49;;;;;;;;;;;11.80;89.40;;;;;;5014570;28;20460;-69
2023/05/05 01:25:16;;;;;;;;;;;11.80;89.60;;;;;;4992622;28;19917;-70
2023/05/05 01:27:42;;;;;;;;;;;11.80;89.40;;;;;;5003180;28;19971;-69
2023/05/05 01:30:07;;;;;;;;;;;11.80;89.60;;;;;;5031715;28;19920;-69
2023/05/05 01:32:36;;;;;;;;;;;11.80;89.50;;;;;;5025901;28;19924;-70
2023/05/05 01:35:09;;;;;;;;;;;11.80;89.60;;;;;;5023968;28;19917;-69
2023/05/05 01:37:44;;;;;;;;;;;11.70;89.70;;;;;;5018622;28;20032;-69
2023/05/05 01:40:09;;;;;;;;;;;11.80;89.80;;;;;;5021688;28;19960;-69
2023/05/05 01:42:35;;;;;;;;;;;11.70;90.00;;;;;;4991559;28;19953;-69
2023/05/05 01:45:02;;;;;;;;;;;11.70;90.00;;;;;;5017182;28;19936;-69
2023/05/05 01:47:27;;;;;;;;;;;11.70;90.00;;;;;;5015061;28;20611;-69
2023/05/05 01:49:53;;;;;;;;;;;11.70;90.10;;;;;;5008320;28;19921;-69
2023/05/05 01:52:19;;;;;;;;;;;11.70;90.10;;;;;;5008314;28;19971;-69
2023/05/05 01:54:44;;;;;;;;;;;11.70;90.40;;;;;;5014683;28;19917;-69
2023/05/05 01:57:10;;;;;;;;;;;11.70;90.20;;;;;;5017370;28;19956;-69
2023/05/05 01:59:37;;;;;;;;;;;11.70;90.30;;;;;;5020764;28;19925;-69
2023/05/05 02:02:03;;;;;;;;;;;11.70;90.50;;;;;;5038876;28;19913;-69
2023/05/05 02:04:30;;;;;;;;;;;11.60;90.30;;;;;;4996288;28;20329;-69
2023/05/05 02:06:58;;;;;;;;;;;11.70;90.30;;;;;;5020944;28;19924;-69
2023/05/05 02:09:24;;;;;;;;;;;11.70;90.30;;;;;;5017086;28;19981;-69
2023/05/05 02:11:50;;;;;;;;;;;11.70;90.40;;;;;;5029926;28;20004;-69
2023/05/05 02:14:16;;;;;;;;;;;11.70;90.50;;;;;;5021611;28;19921;-69
2023/05/05 02:16:42;;;;;;;;;;;11.70;90.40;;;;;;5027173;28;19917;-69
2023/05/05 02:19:08;;;;;;;;;;;11.70;90.40;;;;;;5003171;28;19929;-69
2023/05/05 02:21:33;;;;;;;;;;;11.70;90.60;;;;;;4993993;28;19917;-69
2023/05/05 02:23:59;;;;;;;;;;;11.60;90.60;;;;;;4995897;28;19920;-69
2023/05/05 02:26:25;;;;;;;;;;;11.60;90.80;;;;;;5006225;28;19928;-69
2023/05/05 02:29:00;;;;;;;;;;;11.60;90.80;;;;;;5019063;28;20353;-69
2023/05/05 02:31:26;;;;;;;;;;;11.60;91.00;;;;;;4993842;28;19979;-69
2023/05/05 02:33:52;;;;;;;;;;;11.60;91.00;;;;;;5012155;28;20266;-69
2023/05/05 02:36:18;;;;;;;;;;;11.60;91.10;;;;;;4995177;28;19917;-69
2023/05/05 02:38:44;;;;;;;;;;;11.60;91.00;;;;;;5006948;28;20000;-69
2023/05/05 02:41:11;;;;;;;;;;;11.60;91.20;;;;;;5015809;28;20012;-69
2023/05/05 02:43:37;;;;;;;;;;;11.60;91.00;;;;;;5016073;28;19920;-69
2023/05/05 02:46:03;;;;;;;;;;;11.60;91.00;;;;;;4998754;28;20366;-69
2023/05/05 02:48:29;;;;;;;;;;;11.60;91.10;;;;;;4999718;28;19928;-69
2023/05/05 02:50:54;;;;;;;;;;;11.60;91.20;;;;;;5014016;28;19928;-69
2023/05/05 02:53:21;;;;;;;;;;;11.60;91.10;;;;;;5011524;28;20318;-69
2023/05/05 02:55:51;;;;;;;;;;;11.60;91.10;;;;;;5011757;28;19917;-69
2023/05/05 02:58:20;;;;;;;;;;;11.50;91.10;;;;;;5000008;28;19917;-69
2023/05/05 03:00:49;;;;;;;;;;;11.50;91.20;;;;;;5012984;28;19933;-69
2023/05/05 03:03:16;;;;;;;;;;;11.50;91.30;;;;;;4993887;28;19917;-69
2023/05/05 03:06:00;;;;;;;;;;;11.50;91.50;;;;;;5028870;28;20058;-69
2023/05/05 03:08:32;;;;;;;;;;;11.50;91.50;;;;;;5001152;28;19921;-69
2023/05/05 03:11:06;;;;;;;;;;;11.50;91.60;;;;;;4995984;28;19928;-69
2023/05/05 03:13:35;;;;;;;;;;;11.50;91.70;;;;;;5032280;28;19913;-69
2023/05/05 03:16:05;;;;;;;;;;;11.40;92.00;;;;;;5000843;28;19939;-69
2023/05/05 03:18:31;;;;;;;;;;;11.40;91.90;;;;;;4995590;28;19951;-69
2023/05/05 03:20:56;;;;;;;;;;;11.40;92.30;;;;;;4998988;28;20405;-69
2023/05/05 03:23:22;;;;;;;;;;;11.40;92.20;;;;;;4997519;28;20364;-69
2023/05/05 03:25:48;;;;;;;;;;;11.40;92.10;;;;;;5007276;28;19968;-70
2023/05/05 03:28:13;;;;;;;;;;;11.30;92.50;;;;;;5016554;28;19959;-69
2023/05/05 03:30:39;;;;;;;;;;;11.30;92.70;;;;;;5011396;28;20254;-69
2023/05/05 03:33:06;;;;;;;;;;;11.20;92.90;;;;;;5013479;28;20326;-69
2023/05/05 03:35:31;;;;;;;;;;;11.20;92.90;;;;;;5003855;28;19917;-69
2023/05/05 03:37:57;;;;;;;;;;;11.20;93.00;;;;;;5003911;28;19943;-69
2023/05/05 03:40:23;;;;;;;;;;;11.20;93.10;;;;;;4996301;28;20000;-69
2023/05/05 03:42:49;;;;;;;;;;;11.20;93.40;;;;;;5023261;28;19960;-69
2023/05/05 03:45:14;;;;;;;;;;;11.20;93.30;;;;;;5004441;28;19939;-69
2023/05/05 03:47:40;;;;;;;;;;;11.20;93.30;;;;;;5010099;28;19913;-69
2023/05/05 03:50:06;;;;;;;;;;;11.20;93.40;;;;;;5037344;28;20227;-69
2023/05/05 03:52:32;;;;;;;;;;;11.20;93.40;;;;;;5025107;28;19917;-69
2023/05/05 03:54:58;;;;;;;;;;;11.20;93.80;;;;;;4988003;28;20235;-69
2023/05/05 03:57:25;;;;;;;;;;;11.20;93.60;;;;;;4981577;28;19917;-69
2023/05/05 03:59:52;;;;;;;;;;;11.20;93.80;;;;;;5009783;28;19978;-69
2023/05/05 04:02:18;;;;;;;;;;;11.20;93.80;;;;;;5015858;28;19935;-69
2023/05/05 04:04:43;;;;;;;;;;;11.20;94.00;;;;;;4997980;28;19913;-69
2023/05/05 04:07:10;;;;;;;;;;;11.20;93.90;;;;;;5026947;28;19917;-69
2023/05/05 04:09:35;;;;;;;;;;;11.10;94.40;;;;;;5005676;28;19964;-69
2023/05/05 04:12:01;;;;;;;;;;;11.20;94.70;;;;;;5007925;28;19921;-69
2023/05/05 04:14:27;;;;;;;;;;;11.20;94.20;;;;;;5020465;28;20562;-71
2023/05/05 04:16:53;;;;;;;;;;;11.20;94.10;;;;;;4998793;28;19916;-69
2023/05/05 04:19:19;;;;;;;;;;;11.30;94.30;;;;;;5004087;28;19929;-69
2023/05/05 04:21:44;;;;;;;;;;;11.10;95.10;;;;;;5001781;28;20325;-69
2023/05/05 04:24:10;;;;;;;;;;;11.10;95.10;;;;;;5013284;28;20330;-69
2023/05/05 04:26:36;;;;;;;;;;;11.20;94.70;;;;;;5011027;28;19927;-69
2023/05/05 04:29:01;;;;;;;;;;;11.20;95.10;;;;;;5006400;28;19917;-69
2023/05/05 04:31:27;;;;;;;;;;;11.20;95.00;;;;;;5007211;28;19917;-69
2023/05/05 04:33:53;;;;;;;;;;;11.20;95.00;;;;;;4983889;28;20927;-69
2023/05/05 04:36:18;;;;;;;;;;;11.20;94.90;;;;;;5009235;28;19967;-69
2023/05/05 04:38:44;;;;;;;;;;;11.20;95.10;;;;;;5027231;28;19921;-69
2023/05/05 04:41:11;;;;;;;;;;;11.20;95.30;;;;;;5009790;28;20238;-69
2023/05/05 04:43:36;;;;;;;;;;;11.20;95.00;;;;;;5020180;28;19986;-69
2023/05/05 04:46:02;;;;;;;;;;;11.20;95.00;;;;;;5009339;28;19917;-69
2023/05/05 04:48:28;;;;;;;;;;;11.20;95.20;;;;;;5008780;28;19917;-69
2023/05/05 04:50:53;;;;;;;;;;;11.20;95.60;;;;;;5008510;28;19975;-69
2023/05/05 04:53:19;;;;;;;;;;;11.20;95.50;;;;;;4996273;28;19921;-69
2023/05/05 04:55:45;;;;;;;;;;;11.20;95.60;;;;;;4989031;28;20476;-69
2023/05/05 04:58:10;;;;;;;;;;;11.20;95.60;;;;;;5021646;28;19917;-69
2023/05/05 05:00:36;;;;;;;;;;;11.20;95.40;;;;;;5007781;28;19951;-69
2023/05/05 05:03:02;;;;;;;;;;;11.20;95.60;;;;;;4999222;28;19917;-69
2023/05/05 05:05:28;;;;;;;;;;;11.20;95.80;;;;;;5010510;28;19971;-69
2023/05/05 05:07:54;;;;;;;;;;;11.20;95.70;;;;;;5009342;28;20227;-69
2023/05/05 05:10:20;;;;;;;;;;;11.20;95.80;;;;;;4997748;28;19943;-69
2023/05/05 05:12:48;;;;;;;;;;;11.20;95.70;;;;;;5021124;28;20314;-69
2023/05/05 05:15:14;;;;;;;;;;;11.20;95.90;;;;;;5007328;28;19948;-69
2023/05/05 05:17:40;;;;;;;;;;;11.20;96.40;;;;;;4998447;28;19983;-69
2023/05/05 05:20:06;;;;;;;;;;;11.20;96.00;;;;;;4991190;28;20446;-69
2023/05/05 05:22:31;;;;;;;;;;;11.20;96.50;;;;;;5002316;28;19918;-69
2023/05/05 05:24:57;;;;;;;;;;;11.20;96.30;;;;;;5001242;28;19917;-69
2023/05/05 05:27:23;;;;;;;;;;;11.20;96.30;;;;;;4972637;28;19925;-69
2023/05/05 05:29:48;;;;;;;;;;;11.30;96.10;;;;;;4998486;28;19938;-69
2023/05/05 05:32:14;;;;;;;;;;;11.30;96.10;;;;;;4996131;28;19921;-69
2023/05/05 05:34:40;;;;;;;;;;;11.40;96.20;;;;;;4984227;28;19921;-69
2023/05/05 05:37:05;;;;;;;;;;;11.40;96.30;;;;;;5003009;28;19917;-69
2023/05/05 05:39:31;;;;;;;;;;;11.40;96.70;;;;;;4998162;28;19968;-69
2023/05/05 05:41:57;;;;;;;;;;;11.40;96.80;;;;;;5009734;28;19925;-69
2023/05/05 05:44:22;;;;;;;;;;;11.40;96.80;;;;;;5000185;28;19917;-69
2023/05/05 05:46:48;;;;;;;;;;;11.40;97.00;;;;;;4997339;28;19917;-69
2023/05/05 05:49:15;;;;;;;;;;;11.40;96.90;;;;;;5009188;28;20246;-69
2023/05/05 05:51:42;;;;;;;;;;;11.50;97.10;;;;;;4994205;28;19918;-69
2023/05/05 05:54:08;;;;;;;;;;;11.50;96.80;;;;;;4998595;28;19924;-69
2023/05/05 05:56:34;;;;;;;;;;;11.50;97.20;;;;;;4988108;28;19917;-69
2023/05/05 05:59:00;;;;;;;;;;;11.50;97.30;;;;;;4995748;28;19933;-69
2023/05/05 06:01:26;;;;;;;;;;;11.60;96.90;;;;;;5017710;28;19920;-69
2023/05/05 06:03:52;;;;;;;;;;;11.70;97.10;;;;;;5018109;28;20467;-69
2023/05/05 06:06:18;;;;;;;;;;;11.70;97.10;;;;;;5012418;28;19925;-69
2023/05/05 06:08:44;;;;;;;;;;;11.70;97.00;;;;;;5022658;28;20000;-69
2023/05/05 06:11:09;;;;;;;;;;;11.80;96.90;;;;;;5019219;28;20373;-69
2023/05/05 06:13:35;;;;;;;;;;;11.80;97.10;;;;;;5018364;28;19924;-69
2023/05/05 06:16:02;;;;;;;;;;;11.80;96.90;;;;;;5021133;28;19917;-69
2023/05/05 06:18:28;;;;;;;;;;;11.90;97.10;;;;;;5015466;28;19925;-69
2023/05/05 06:20:55;;;;;;;;;;;11.90;97.30;;;;;;5024578;28;20368;-69
2023/05/05 06:23:21;;;;;;;;;;;11.90;97.30;;;;;;5011523;28;19925;-69
2023/05/05 06:25:46;;;;;;;;;;;12.00;97.20;;;;;;5015576;28;20246;-70
2023/05/05 06:28:12;;;;;;;;;;;12.00;97.00;;;;;;4983208;28;19913;-69
2023/05/05 06:30:38;;;;;;;;;;;12.10;96.80;;;;;;5006492;28;19917;-69
2023/05/05 06:33:04;;;;;;;;;;;12.20;97.00;;;;;;5011495;28;19949;-69
2023/05/05 06:35:30;;;;;;;;;;;12.20;96.70;;;;;;4985070;28;19914;-69
2023/05/05 06:37:56;;;;;;;;;;;12.20;96.60;;;;;;5005193;28;19925;-69
2023/05/05 06:40:22;;;;;;;;;;;12.20;96.70;;;;;;4982895;28;19929;-69
2023/05/05 06:42:47;;;;;;;;;;;12.30;96.60;;;;;;5002206;28;20274;-69
2023/05/05 06:45:13;;;;;;;;;;;12.30;97.00;;;;;;5005669;28;19917;-69
2023/05/05 06:47:39;;;;;;;;;;;12.40;96.80;;;;;;5002158;28;20547;-69
2023/05/05 06:50:05;;;;;;;;;;;12.50;96.70;;;;;;5009223;28;19937;-70
2023/05/05 06:52:31;;;;;;;;;;;12.60;96.50;;;;;;5009490;28;19925;-70
2023/05/05 06:54:56;;;;;;;;;;;12.60;96.60;;;;;;5002620;28;19918;-70
2023/05/05 06:57:22;;;;;;;;;;;12.70;96.90;;;;;;5002056;28;19918;-70
2023/05/05 06:59:48;;;;;;;;;;;12.70;96.50;;;;;;5001890;28;20012;-70
2023/05/05 07:02:13;;;;;;;;;;;12.70;96.30;;;;;;4998644;28;19964;-70
2023/05/05 07:04:40;;;;;;;;;;;12.80;96.50;;;;;;4994839;28;19918;-70
2023/05/05 07:07:05;;;;;;;;;;;12.90;96.90;;;;;;4998788;28;19918;-70
2023/05/05 07:09:31;;;;;;;;;;;13.00;96.60;;;;;;4991813;28;20001;-70
2023/05/05 07:11:57;;;;;;;;;;;13.00;96.70;;;;;;5012829;28;19949;-70
2023/05/05 07:14:22;;;;;;;;;;;13.20;96.70;;;;;;4973516;28;19952;-70
2023/05/05 07:16:49;;;;;;;;;;;13.20;96.40;;;;;;4999483;28;19924;-70
2023/05/05 07:19:15;;;;;;;;;;;13.30;96.70;;;;;;5004992;28;20243;-70
2023/05/05 07:21:41;;;;;;;;;;;13.30;96.10;;;;;;5000044;28;19917;-70
2023/05/05 07:24:06;;;;;;;;;;;13.40;96.20;;;;;;4981714;28;19922;-70
2023/05/05 07:26:32;;;;;;;;;;;13.50;96.40;;;;;;5013617;28;20311;-70
2023/05/05 07:28:58;;;;;;;;;;;13.60;96.60;;;;;;5013967;28;20766;-70
2023/05/05 07:31:24;;;;;;;;;;;13.80;96.40;;;;;;5005570;28;19917;-70
2023/05/05 07:33:50;;;;;;;;;;;13.80;96.20;;;;;;5010859;28;19917;-70
2023/05/05 07:36:18;;;;;;;;;;;13.90;96.00;;;;;;4996236;28;19928;-70
2023/05/05 07:38:44;;;;;;;;;;;14.00;95.90;;;;;;5007306;28;19983;-70
2023/05/05 07:41:13;;;;;;;;;;;14.20;95.70;;;;;;5013353;28;20296;-70
2023/05/05 07:43:42;;;;;;;;;;;14.30;95.20;;;;;;5012979;28;19962;-71
2023/05/05 07:46:07;;;;;;;;;;;14.30;95.20;;;;;;4983944;28;20511;-70
2023/05/05 07:48:33;;;;;;;;;;;14.40;95.40;;;;;;5004515;28;19917;-70
2023/05/05 07:50:58;;;;;;;;;;;14.40;95.20;;;;;;5001963;28;20008;-70
2023/05/05 07:53:25;;;;;;;;;;;14.40;95.30;;;;;;5003694;28;19983;-70
2023/05/05 07:55:51;;;;;;;;;;;14.50;95.30;;;;;;4992777;28;20036;-70
2023/05/05 07:58:17;;;;;;;;;;;14.60;94.70;;;;;;4996680;28;20001;-70
2023/05/05 08:00:42;;;;;;;;;;;14.70;94.60;;;;;;4993680;28;19918;-70
2023/05/05 08:03:08;;;;;;;;;;;14.70;94.50;;;;;;5007689;28;20013;-70
2023/05/05 08:05:34;;;;;;;;;;;14.80;95.10;;;;;;5006525;28;19996;-71
2023/05/05 08:08:00;;;;;;;;;;;14.90;94.80;;;;;;4984047;28;19918;-70
2023/05/05 08:10:25;;;;;;;;;;;15.00;94.50;;;;;;4985222;28;19964;-70
2023/05/05 08:12:53;;;;;;;;;;;15.00;94.70;;;;;;5010971;28;19937;-70
2023/05/05 08:15:18;;;;;;;;;;;15.00;94.60;;;;;;4977716;28;19976;-70
2023/05/05 08:17:45;;;;;;;;;;;15.10;94.80;;;;;;4999673;28;19922;-70
2023/05/05 08:20:10;;;;;;;;;;;15.20;95.00;;;;;;5006751;28;19925;-70
2023/05/05 08:22:36;;;;;;;;;;;15.30;94.20;;;;;;5009933;28;20376;-70
2023/05/05 08:25:02;;;;;;;;;;;15.30;94.50;;;;;;4995555;28;19929;-70
2023/05/05 08:27:28;;;;;;;;;;;15.40;94.30;;;;;;5007164;28;20007;-70
2023/05/05 08:29:53;;;;;;;;;;;15.60;94.50;;;;;;4987971;28;20333;-70
2023/05/05 08:32:19;;;;;;;;;;;15.60;94.70;;;;;;5014668;28;19928;-70
2023/05/05 08:34:45;;;;;;;;;;;15.70;94.70;;;;;;5017262;28;19928;-70
2023/05/05 08:37:10;;;;;;;;;;;15.80;94.00;;;;;;5018346;28;19929;-70
2023/05/05 08:39:36;;;;;;;;;;;15.80;93.30;;;;;;5016331;28;20377;-70
2023/05/05 08:42:02;;;;;;;;;;;15.80;93.90;;;;;;5016257;28;20288;-70
2023/05/05 08:44:27;;;;;;;;;;;15.90;94.00;;;;;;5013815;28;19917;-70
2023/05/05 08:46:53;;;;;;;;;;;15.90;93.90;;;;;;5015379;28;19917;-70
2023/05/05 08:49:19;;;;;;;;;;;16.00;93.40;;;;;;5014481;28;19913;-70
2023/05/05 08:51:44;;;;;;;;;;;16.00;92.90;;;;;;4979821;28;19917;-70
2023/05/05 08:54:14;;;;;;;;;;;16.10;92.80;;;;;;5013197;28;19917;-70
2023/05/05 08:56:42;;;;;;;;;;;16.20;92.30;;;;;;4993395;28;19913;-70
2023/05/05 08:59:11;;;;;;;;;;;16.30;93.30;;;;;;5011876;28;19979;-70
2023/05/05 09:01:36;;;;;;;;;;;16.40;93.00;;;;;;4997261;28;19921;-70
2023/05/05 09:04:02;;;;;;;;;;;16.50;92.00;;;;;;4979709;28;20341;-70
2023/05/05 09:06:28;;;;;;;;;;;16.60;91.40;;;;;;4994697;28;19914;-71
2023/05/05 09:08:54;;;;;;;;;;;16.60;91.60;;;;;;4985592;28;19914;-70
2023/05/05 09:11:21;;;;;;;;;;;16.70;91.10;;;;;;4999365;28;19922;-70
2023/05/05 09:13:47;;;;;;;;;;;16.70;91.00;;;;;;5008469;28;19979;-70
2023/05/05 09:16:12;;;;;;;;;;;16.90;91.20;;;;;;4983597;28;19917;-70
2023/05/05 09:18:39;;;;;;;;;;;17.00;92.10;;;;;;5010971;28;20310;-71
2023/05/05 09:21:23;;;;;;;;;;;17.10;92.10;;;;;;4995437;28;19918;-70
2023/05/05 09:24:07;;;;;;;;;;;17.20;91.80;;;;;;5015548;28;19913;-71
2023/05/05 09:26:33;;;;;;;;;;;17.20;91.70;;;;;;5001651;28;19984;-71
2023/05/05 09:29:01;;;;;;;;;;;17.20;91.10;;;;;;5007948;28;19913;-70
2023/05/05 09:31:28;;;;;;;;;;;17.10;90.50;;;;;;4995284;28;20574;-70
2023/05/05 09:33:54;;;;;;;;;;;17.20;90.70;;;;;;4993689;28;19923;-71
2023/05/05 09:36:20;;;;;;;;;;;17.20;90.40;;;;;;4979127;28;19918;-70
2023/05/05 09:39:04;;;;;;;;;;;17.30;90.70;;;;;;5007116;28;19932;-70
2023/05/05 09:41:37;;;;;;;;;;;17.40;89.50;;;;;;5001473;28;19928;-71
2023/05/05 09:44:03;;;;;;;;;;;17.50;90.10;;;;;;4989763;28;20246;-71
2023/05/05 09:46:28;;;;;;;;;;;17.60;91.30;;;;;;5002504;28;19918;-71
2023/05/05 09:48:54;;;;;;;;;;;17.70;90.40;;;;;;4994737;28;19964;-70
2023/05/05 09:51:28;;;;;;;;;;;17.70;88.80;;;;;;5030332;28;19913;-70
2023/05/05 09:53:54;;;;;;;;;;;17.70;89.70;;;;;;5010784;28;19918;-71
2023/05/05 09:56:19;;;;;;;;;;;17.70;89.60;;;;;;4986610;28;19948;-70
2023/05/05 09:58:45;;;;;;;;;;;17.80;88.30;;;;;;5008021;28;20255;-72
2023/05/05 10:01:20;;;;;;;;;;;17.80;89.20;;;;;;4989145;28;19925;-74
2023/05/05 10:03:50;;;;;;;;;;;17.80;87.20;;;;;;4993268;28;19918;-70
2023/05/05 10:06:16;;;;;;;;;;;17.80;87.10;;;;;;5002400;28;19918;-70
2023/05/05 10:08:42;;;;;;;;;;;17.80;86.40;;;;;;4989893;28;19924;-70
2023/05/05 10:11:07;;;;;;;;;;;17.80;85.80;;;;;;5004807;28;19996;-71
2023/05/05 10:13:36;;;;;;;;;;;18.00;88.30;;;;;;5009044;28;19918;-70
2023/05/05 10:16:02;;;;;;;;;;;18.00;87.60;;;;;;5013767;28;19918;-71
2023/05/05 10:18:29;;;;;;;;;;;18.10;87.10;;;;;;5001787;28;20327;-71
2023/05/05 10:20:56;;;;;;;;;;;18.10;87.40;;;;;;5003600;28;19929;-70
2023/05/05 10:23:22;;;;;;;;;;;18.20;88.10;;;;;;4986753;28;19945;-70
2023/05/05 10:25:56;;;;;;;;;;;18.20;86.10;;;;;;5008506;28;20223;-70
2023/05/05 10:28:27;;;;;;;;;;;18.30;87.80;;;;;;4991921;28;19921;-71
2023/05/05 10:30:53;;;;;;;;;;;18.30;85.30;;;;;;4983302;28;19918;-71
2023/05/05 10:33:20;;;;;;;;;;;18.20;85.60;;;;;;4976225;28;20538;-71
2023/05/05 10:35:46;;;;;;;;;;;18.30;85.40;;;;;;4999153;28;19918;-71
2023/05/05 10:38:11;;;;;;;;;;;18.30;86.20;;;;;;4993284;28;20397;-71
2023/05/05 10:40:47;;;;;;;;;;;18.30;84.90;;;;;;4992487;28;19917;-71
2023/05/05 10:43:13;;;;;;;;;;;18.30;84.80;;;;;;5003786;28;19918;-71
2023/05/05 10:45:38;;;;;;;;;;;18.30;85.00;;;;;;4998086;28;19988;-71
2023/05/05 10:48:05;;;;;;;;;;;18.30;84.00;;;;;;4974398;28;19918;-71
2023/05/05 10:50:30;;;;;;;;;;;18.20;83.30;;;;;;4988588;28;19914;-71
2023/05/05 10:52:56;;;;;;;;;;;18.20;85.20;;;;;;4984996;28;19932;-71
2023/05/05 10:55:37;;;;;;;;;;;18.20;85.10;;;;;;4984240;28;19918;-71
2023/05/05 10:58:02;;;;;;;;;;;18.20;84.50;;;;;;4987292;28;19918;-71
2023/05/05 11:00:37;;;;;;;;;;;18.20;85.20;;;;;;4994711;28;19988;-71
2023/05/05 11:03:15;;;;;;;;;;;18.20;87.90;;;;;;4989304;28;20437;-71
2023/05/05 11:05:59;;;;;;;;;;;18.10;85.10;;;;;;4991323;28;19918;-71
2023/05/05 11:08:25;;;;;;;;;;;18.10;84.00;;;;;;4988731;28;19925;-70
2023/05/05 11:10:51;;;;;;;;;;;18.10;82.70;;;;;;4975013;28;19918;-71
2023/05/05 11:13:18;;;;;;;;;;;18.10;82.80;;;;;;4972178;28;19929;-71
2023/05/05 11:15:43;;;;;;;;;;;18.10;82.80;;;;;;4989217;28;20076;-72
2023/05/05 11:18:26;;;;;;;;;;;18.10;82.60;;;;;;4986141;28;20005;-70
2023/05/05 11:20:59;;;;;;;;;;;18.00;82.40;;;;;;4986275;28;20369;-71
2023/05/05 11:23:25;;;;;;;;;;;18.00;83.50;;;;;;4990746;28;19976;-70
2023/05/05 11:25:51;;;;;;;;;;;18.00;84.20;;;;;;4997856;28;20004;-70
2023/05/05 11:28:17;;;;;;;;;;;18.00;85.10;;;;;;4988254;28;19926;-70
2023/05/05 11:30:51;;;;;;;;;;;18.00;85.90;;;;;;4991379;28;19925;-70
2023/05/05 11:33:36;;;;;;;;;;;18.00;86.00;;;;;;4988623;28;19918;-70
2023/05/05 11:36:17;;;;;;;;;;;18.00;86.20;;;;;;4984112;28;19926;-70
2023/05/05 11:38:57;;;;;;;;;;;18.00;86.60;;;;;;4992395;28;19914;-70
2023/05/05 11:41:29;;;;;;;;;;;17.90;87.40;;;;;;4994604;28;19957;-71
2023/05/05 11:44:13;;;;;;;;;;;18.00;87.00;;;;;;4992561;28;19981;-70
2023/05/05 11:47:08;;;;;;;;;;;17.90;87.60;;;;;;4980372;28;19953;-71
2023/05/05 11:49:34;;;;;;;;;;;17.90;87.70;;;;;;4990513;28;19914;-71
2023/05/05 11:52:01;;;;;;;;;;;17.80;88.50;;;;;;4989100;28;19945;-70
2023/05/05 11:54:27;;;;;;;;;;;17.80;88.40;;;;;;4993686;28;19921;-71
2023/05/05 11:56:57;;;;;;;;;;;17.90;88.70;;;;;;4993346;28;20383;-70
2023/05/05 11:59:23;;;;;;;;;;;17.90;88.30;;;;;;4970451;28;19932;-70
2023/05/05 12:01:49;;;;;;;;;;;17.90;88.90;;;;;;4984094;28;20008;-70
2023/05/05 12:04:14;;;;;;;;;;;17.90;89.10;;;;;;4992263;28;19918;-71
2023/05/05 12:06:40;;;;;;;;;;;17.90;89.80;;;;;;4989205;28;19922;-70
2023/05/05 12:09:12;;;;;;;;;;;17.90;88.80;;;;;;5002990;28;20306;-70
2023/05/05 12:12:00;;;;;;;;;;;17.90;89.60;;;;;;4999913;28;20414;-71
2023/05/05 12:14:26;;;;;;;;;;;17.90;89.80;;;;;;4984839;28;20335;-71
2023/05/05 12:17:01;;;;;;;;;;;17.90;89.80;;;;;;4983032;28;19918;-70
2023/05/05 12:19:31;;;;;;;;;;;17.90;88.70;;;;;;4993600;28;19930;-72
2023/05/05 12:21:59;;;;;;;;;;;17.90;88.50;;;;;;5008836;28;19929;-70
2023/05/05 12:24:25;;;;;;;;;;;17.90;88.70;;;;;;5002927;28;20295;-70
2023/05/05 12:26:50;;;;;;;;;;;17.90;87.80;;;;;;4981676;28;19928;-71
2023/05/05 12:29:22;;;;;;;;;;;17.90;88.10;;;;;;5004151;28;19942;-71
2023/05/05 12:31:50;;;;;;;;;;;17.90;88.30;;;;;;5003002;28;19918;-71
2023/05/05 12:34:16;;;;;;;;;;;17.80;88.80;;;;;;4986270;28;19960;-70
2023/05/05 12:36:42;;;;;;;;;;;17.90;89.20;;;;;;5002794;28;19957;-71
2023/05/05 12:39:07;;;;;;;;;;;17.90;88.80;;;;;;4973318;28;20369;-71
2023/05/05 12:41:33;;;;;;;;;;;18.00;88.90;;;;;;4986209;28;20506;-72
2023/05/05 12:43:59;;;;;;;;;;;17.90;88.60;;;;;;5006604;28;20266;-71
2023/05/05 12:46:25;;;;;;;;;;;17.90;89.00;;;;;;4991813;28;19924;-71
2023/05/05 12:49:03;;;;;;;;;;;17.80;89.70;;;;;;4973852;28;19926;-71
2023/05/05 12:51:30;;;;;;;;;;;17.90;90.20;;;;;;5006023;28;19925;-72
2023/05/05 12:54:09;;;;;;;;;;;17.90;90.40;;;;;;4976458;28;20339;-71
2023/05/05 12:56:39;;;;;;;;;;;17.80;90.60;;;;;;4986024;28;19996;-71
2023/05/05 12:59:06;;;;;;;;;;;17.90;90.90;;;;;;4992858;28;20008;-71
2023/05/05 13:01:32;;;;;;;;;;;17.80;91.10;;;;;;4990445;28;19918;-73
2023/05/05 13:04:05;;;;;;;;;;;17.90;91.20;;;;;;4978790;28;19933;-72
2023/05/05 13:06:31;;;;;;;;;;;17.90;91.40;;;;;;4983422;28;20604;-71
2023/05/05 13:08:57;;;;;;;;;;;17.90;91.80;;;;;;4993274;28;20008;-72
2023/05/05 13:11:23;;;;;;;;;;;17.90;92.30;;;;;;4983536;28;20009;-71
2023/05/05 13:13:50;;;;;;;;;;;17.90;92.30;;;;;;5001928;28;20530;-71
2023/05/05 13:16:16;;;;;;;;;;;17.90;92.70;;;;;;4978901;28;19929;-71
2023/05/05 13:18:42;;;;;;;;;;;17.90;92.90;;;;;;4996702;28;19922;-71
2023/05/05 13:21:09;;;;;;;;;;;17.90;93.20;;;;;;5018512;28;20008;-72
2023/05/05 13:23:35;;;;;;;;;;;18.00;93.40;;;;;;5027622;28;19912;-71
2023/05/05 13:26:00;;;;;;;;;;;18.00;94.40;;;;;;5013259;28;19921;-71
2023/05/05 13:28:26;;;;;;;;;;;18.00;94.20;;;;;;5010039;28;19913;-71
2023/05/05 13:30:52;;;;;;;;;;;18.10;93.60;;;;;;5002281;28;19964;-71
2023/05/05 13:33:17;;;;;;;;;;;18.10;93.70;;;;;;4998460;28;20392;-71
2023/05/05 13:35:43;;;;;;;;;;;18.20;93.60;;;;;;5006416;28;19924;-71
2023/05/05 13:38:08;;;;;;;;;;;18.30;94.00;;;;;;5008277;28;19928;-71
2023/05/05 13:40:35;;;;;;;;;;;18.30;93.70;;;;;;5004706;28;19967;-71
2023/05/05 13:43:01;;;;;;;;;;;18.50;93.20;;;;;;5009273;28;19928;-71
2023/05/05 13:45:26;;;;;;;;;;;18.60;93.40;;;;;;5027607;28;19921;-71
2023/05/05 13:47:52;;;;;;;;;;;18.70;93.10;;;;;;4998675;28;19921;-71
2023/05/05 13:50:17;;;;;;;;;;;18.80;92.90;;;;;;5007772;28;20345;-77
2023/05/05 13:52:43;;;;;;;;;;;18.90;93.50;;;;;;5015068;28;19917;-74
2023/05/05 13:55:09;;;;;;;;;;;19.00;92.40;;;;;;4983989;28;19924;-72
2023/05/05 13:57:35;;;;;;;;;;;19.00;92.10;;;;;;5007064;28;19921;-71
2023/05/05 14:00:01;;;;;;;;;;;19.10;92.60;;;;;;4979270;28;20369;-72
2023/05/05 14:02:27;;;;;;;;;;;19.10;92.10;;;;;;5008178;28;20071;-71
2023/05/05 14:04:52;;;;;;;;;;;19.20;91.90;;;;;;5008955;28;20000;-72
2023/05/05 14:07:18;;;;;;;;;;;19.30;90.90;;;;;;4965714;28;19928;-71
2023/05/05 14:09:43;;;;;;;;;;;19.40;90.60;;;;;;5008218;28;20198;-71
2023/05/05 14:12:09;;;;;;;;;;;19.40;90.40;;;;;;5026769;28;19925;-71
2023/05/05 14:14:36;;;;;;;;;;;19.40;90.90;;;;;;5008465;28;20372;-72
2023/05/05 14:17:02;;;;;;;;;;;19.50;90.60;;;;;;4988975;28;19913;-71